sensor_id;sensor_type;location;lat;lon;timestamp;temperature;humidity
23289;DHT22;11813;50.834;4.280;2022-08-01T00:00:27;21.50;99.90
23289;DHT22;11813;50.834;4.280;2022-08-01T00:02:52;21.40;99.90
23289;DHT22;11813;50.834;4.280;2022-08-01T00:05:18;21.40;99.90
23289;DHT22;11813;50.834;4.280;2022-08-01T00:07:44;21.50;99.90
23289;DHT22;11813;50.834;4.280;2022-08-01T00:10:11;21.50;99.90
23289;DHT22;11813;50.834;4.280;2022-08-01T00:12:37;21.40;99.90
23289;DHT22;11813;50.834;4.280;2022-08-01T00:15:05;21.40;99.90
23289;DHT22;11813;50.834;4.280;2022-08-01T00:17:31;21.40;99.90
23289;DHT22;11813;50.834;4.280;2022-08-01T00:19:57;21.50;99.90
23289;DHT22;11813;50.834;4.280;2022-08-01T00:22:23;21.50;99.90
23289;DHT22;11813;50.834;4.280;2022-08-01T00:24:49;21.50;99.90
23289;DHT22;11813;50.834;4.280;2022-08-01T00:27:14;21.50;99.90
23289;DHT22;11813;50.834;4.280;2022-08-01T00:29:40;21.30;99.90
23289;DHT22;11813;50.834;4.280;2022-08-01T00:32:06;21.40;99.90
23289;DHT22;11813;50.834;4.280;2022-08-01T00:34:32;21.40;99.90
23289;DHT22;11813;50.834;4.280;2022-08-01T00:36:58;21.30;99.90
23289;DHT22;11813;50.834;4.280;2022-08-01T00:39:24;21.10;99.90
23289;DHT22;11813;50.834;4.280;2022-08-01T00:41:49;21.20;99.90
23289;DHT22;11813;50.834;4.280;2022-08-01T00:44:15;21.20;99.90
23289;DHT22;11813;50.834;4.280;2022-08-01T00:46:41;21.20;99.90
23289;DHT22;11813;50.834;4.280;2022-08-01T00:49:06;21.30;99.90
23289;DHT22;11813;50.834;4.280;2022-08-01T00:51:33;21.40;99.90
23289;DHT22;11813;50.834;4.280;2022-08-01T00:53:59;21.40;99.90
23289;DHT22;11813;50.834;4.280;2022-08-01T00:56:26;21.40;99.90
23289;DHT22;11813;50.834;4.280;2022-08-01T00:58:53;21.40;99.90
23289;DHT22;11813;50.834;4.280;2022-08-01T01:01:19;21.40;99.90
23289;DHT22;11813;50.834;4.280;2022-08-01T01:03:49;21.50;99.90
23289;DHT22;11813;50.834;4.280;2022-08-01T01:09:14;21.50;99.90
23289;DHT22;11813;50.834;4.280;2022-08-01T01:14:41;21.30;99.90
23289;DHT22;11813;50.834;4.280;2022-08-01T01:17:16;21.10;99.90
23289;DHT22;11813;50.834;4.280;2022-08-01T01:19:47;20.90;99.90
23289;DHT22;11813;50.834;4.280;2022-08-01T01:22:22;20.80;99.90
23289;DHT22;11813;50.834;4.280;2022-08-01T01:25:02;20.60;99.90
23289;DHT22;11813;50.834;4.280;2022-08-01T01:30:30;20.50;99.90
23289;DHT22;11813;50.834;4.280;2022-08-01T01:33:02;20.50;99.90
23289;DHT22;11813;50.834;4.280;2022-08-01T01:35:32;20.60;99.90
23289;DHT22;11813;50.834;4.280;2022-08-01T01:38:10;20.80;99.90
23289;DHT22;11813;50.834;4.280;2022-08-01T01:40:41;20.80;99.90
23289;DHT22;11813;50.834;4.280;2022-08-01T01:43:10;20.80;99.90
23289;DHT22;11813;50.834;4.280;2022-08-01T01:45:37;20.90;99.90
23289;DHT22;11813;50.834;4.280;2022-08-01T01:48:05;20.90;99.90
23289;DHT22;11813;50.834;4.280;2022-08-01T01:50:33;20.70;99.90
23289;DHT22;11813;50.834;4.280;2022-08-01T01:53:01;20.60;99.90
23289;DHT22;11813;50.834;4.280;2022-08-01T01:55:28;20.50;99.90
23289;DHT22;11813;50.834;4.280;2022-08-01T01:57:55;20.60;99.90
23289;DHT22;11813;50.834;4.280;2022-08-01T02:00:22;20.70;99.90
23289;DHT22;11813;50.834;4.280;2022-08-01T02:02:49;20.70;99.90
23289;DHT22;11813;50.834;4.280;2022-08-01T02:05:17;20.80;99.90
23289;DHT22;11813;50.834;4.280;2022-08-01T02:07:43;20.80;99.90
23289;DHT22;11813;50.834;4.280;2022-08-01T02:10:10;20.80;99.90
23289;DHT22;11813;50.834;4.280;2022-08-01T02:12:38;20.70;99.90
23289;DHT22;11813;50.834;4.280;2022-08-01T02:15:05;20.80;99.90
23289;DHT22;11813;50.834;4.280;2022-08-01T02:17:31;20.80;99.90
23289;DHT22;11813;50.834;4.280;2022-08-01T02:19:57;20.70;99.90
23289;DHT22;11813;50.834;4.280;2022-08-01T02:22:29;20.70;99.90
23289;DHT22;11813;50.834;4.280;2022-08-01T02:25:09;20.70;99.90
23289;DHT22;11813;50.834;4.280;2022-08-01T02:27:45;20.80;99.90
23289;DHT22;11813;50.834;4.280;2022-08-01T02:30:13;20.70;99.90
23289;DHT22;11813;50.834;4.280;2022-08-01T02:32:44;20.70;99.90
23289;DHT22;11813;50.834;4.280;2022-08-01T02:35:14;20.80;99.90
23289;DHT22;11813;50.834;4.280;2022-08-01T02:37:44;20.80;99.90
23289;DHT22;11813;50.834;4.280;2022-08-01T02:40:12;20.90;99.90
23289;DHT22;11813;50.834;4.280;2022-08-01T02:42:39;20.70;99.90
23289;DHT22;11813;50.834;4.280;2022-08-01T02:45:08;20.70;99.90
23289;DHT22;11813;50.834;4.280;2022-08-01T02:47:35;20.80;99.90
23289;DHT22;11813;50.834;4.280;2022-08-01T02:50:02;20.90;99.90
23289;DHT22;11813;50.834;4.280;2022-08-01T02:52:29;21.00;99.90
23289;DHT22;11813;50.834;4.280;2022-08-01T02:54:57;21.00;99.90
23289;DHT22;11813;50.834;4.280;2022-08-01T02:57:24;20.90;99.90
23289;DHT22;11813;50.834;4.280;2022-08-01T02:59:51;20.90;99.90
23289;DHT22;11813;50.834;4.280;2022-08-01T03:02:19;20.90;99.90
23289;DHT22;11813;50.834;4.280;2022-08-01T03:04:46;20.90;99.90
23289;DHT22;11813;50.834;4.280;2022-08-01T03:07:13;20.90;99.90
23289;DHT22;11813;50.834;4.280;2022-08-01T03:09:43;20.90;99.90
23289;DHT22;11813;50.834;4.280;2022-08-01T03:12:18;20.90;99.90
23289;DHT22;11813;50.834;4.280;2022-08-01T03:14:46;20.90;99.90
23289;DHT22;11813;50.834;4.280;2022-08-01T03:17:13;20.90;99.90
23289;DHT22;11813;50.834;4.280;2022-08-01T03:19:39;20.80;99.90
23289;DHT22;11813;50.834;4.280;2022-08-01T03:22:08;20.60;99.90
23289;DHT22;11813;50.834;4.280;2022-08-01T03:24:38;20.60;99.90
23289;DHT22;11813;50.834;4.280;2022-08-01T03:27:05;20.60;99.90
23289;DHT22;11813;50.834;4.280;2022-08-01T03:29:33;20.70;99.90
23289;DHT22;11813;50.834;4.280;2022-08-01T03:32:00;20.70;99.90
23289;DHT22;11813;50.834;4.280;2022-08-01T03:34:27;20.60;99.90
23289;DHT22;11813;50.834;4.280;2022-08-01T03:37:07;20.70;99.90
23289;DHT22;11813;50.834;4.280;2022-08-01T03:39:42;20.60;99.90
23289;DHT22;11813;50.834;4.280;2022-08-01T03:42:14;20.60;99.90
23289;DHT22;11813;50.834;4.280;2022-08-01T03:44:41;20.60;99.90
23289;DHT22;11813;50.834;4.280;2022-08-01T03:47:11;20.60;99.90
23289;DHT22;11813;50.834;4.280;2022-08-01T03:49:43;20.60;99.90
23289;DHT22;11813;50.834;4.280;2022-08-01T03:52:09;20.70;99.90
23289;DHT22;11813;50.834;4.280;2022-08-01T03:54:37;20.80;99.90
23289;DHT22;11813;50.834;4.280;2022-08-01T03:57:04;20.80;99.90
23289;DHT22;11813;50.834;4.280;2022-08-01T03:59:30;20.80;99.90
23289;DHT22;11813;50.834;4.280;2022-08-01T04:01:57;20.70;99.90
23289;DHT22;11813;50.834;4.280;2022-08-01T04:04:24;20.70;99.90
23289;DHT22;11813;50.834;4.280;2022-08-01T04:06:50;20.80;99.90
23289;DHT22;11813;50.834;4.280;2022-08-01T04:09:20;20.80;99.90
23289;DHT22;11813;50.834;4.280;2022-08-01T04:11:47;20.60;99.90
23289;DHT22;11813;50.834;4.280;2022-08-01T04:14:13;20.70;99.90
23289;DHT22;11813;50.834;4.280;2022-08-01T04:16:38;20.70;99.90
23289;DHT22;11813;50.834;4.280;2022-08-01T04:19:04;20.80;99.90
23289;DHT22;11813;50.834;4.280;2022-08-01T04:21:33;20.80;99.90
23289;DHT22;11813;50.834;4.280;2022-08-01T04:24:09;20.80;99.90
23289;DHT22;11813;50.834;4.280;2022-08-01T04:26:37;20.80;99.90
23289;DHT22;11813;50.834;4.280;2022-08-01T04:29:04;20.70;99.90
23289;DHT22;11813;50.834;4.280;2022-08-01T04:31:31;20.70;99.90
23289;DHT22;11813;50.834;4.280;2022-08-01T04:33:59;20.60;99.90
23289;DHT22;11813;50.834;4.280;2022-08-01T04:36:27;20.50;99.90
23289;DHT22;11813;50.834;4.280;2022-08-01T04:38:57;20.40;99.90
23289;DHT22;11813;50.834;4.280;2022-08-01T04:41:24;20.30;99.90
23289;DHT22;11813;50.834;4.280;2022-08-01T04:43:51;20.30;99.90
23289;DHT22;11813;50.834;4.280;2022-08-01T04:46:17;20.50;99.90
23289;DHT22;11813;50.834;4.280;2022-08-01T04:48:44;20.60;99.90
23289;DHT22;11813;50.834;4.280;2022-08-01T04:51:15;20.70;99.90
23289;DHT22;11813;50.834;4.280;2022-08-01T04:53:42;20.80;99.90
23289;DHT22;11813;50.834;4.280;2022-08-01T04:56:08;20.80;99.90
23289;DHT22;11813;50.834;4.280;2022-08-01T04:58:33;20.80;99.90
23289;DHT22;11813;50.834;4.280;2022-08-01T05:00:59;20.80;99.90
23289;DHT22;11813;50.834;4.280;2022-08-01T05:03:25;21.00;99.90
23289;DHT22;11813;50.834;4.280;2022-08-01T05:05:50;21.10;99.90
23289;DHT22;11813;50.834;4.280;2022-08-01T05:08:16;21.00;99.90
23289;DHT22;11813;50.834;4.280;2022-08-01T05:10:42;21.00;99.90
23289;DHT22;11813;50.834;4.280;2022-08-01T05:13:08;21.10;99.90
23289;DHT22;11813;50.834;4.280;2022-08-01T05:15:37;21.10;99.90
23289;DHT22;11813;50.834;4.280;2022-08-01T05:18:03;21.00;99.90
23289;DHT22;11813;50.834;4.280;2022-08-01T05:20:29;21.00;99.90
23289;DHT22;11813;50.834;4.280;2022-08-01T05:22:55;21.00;99.90
23289;DHT22;11813;50.834;4.280;2022-08-01T05:25:21;20.90;99.90
23289;DHT22;11813;50.834;4.280;2022-08-01T05:27:46;20.90;99.90
23289;DHT22;11813;50.834;4.280;2022-08-01T05:30:12;20.90;99.90
23289;DHT22;11813;50.834;4.280;2022-08-01T05:32:38;20.90;99.90
23289;DHT22;11813;50.834;4.280;2022-08-01T05:35:04;21.00;99.90
23289;DHT22;11813;50.834;4.280;2022-08-01T05:37:30;21.10;99.90
23289;DHT22;11813;50.834;4.280;2022-08-01T05:39:56;21.20;99.90
23289;DHT22;11813;50.834;4.280;2022-08-01T05:42:21;21.30;99.90
23289;DHT22;11813;50.834;4.280;2022-08-01T05:44:47;21.40;99.90
23289;DHT22;11813;50.834;4.280;2022-08-01T05:47:13;21.50;99.90
23289;DHT22;11813;50.834;4.280;2022-08-01T05:49:39;21.50;99.90
23289;DHT22;11813;50.834;4.280;2022-08-01T05:52:04;21.50;99.90
23289;DHT22;11813;50.834;4.280;2022-08-01T05:54:30;21.50;99.90
23289;DHT22;11813;50.834;4.280;2022-08-01T05:56:56;21.50;99.90
23289;DHT22;11813;50.834;4.280;2022-08-01T05:59:25;21.50;99.90
23289;DHT22;11813;50.834;4.280;2022-08-01T06:01:51;21.60;99.90
23289;DHT22;11813;50.834;4.280;2022-08-01T06:04:17;21.70;99.90
23289;DHT22;11813;50.834;4.280;2022-08-01T06:06:43;21.70;99.90
23289;DHT22;11813;50.834;4.280;2022-08-01T06:09:08;21.60;99.90
23289;DHT22;11813;50.834;4.280;2022-08-01T06:11:34;21.60;99.90
23289;DHT22;11813;50.834;4.280;2022-08-01T06:14:00;21.60;99.90
23289;DHT22;11813;50.834;4.280;2022-08-01T06:16:25;21.70;99.90
23289;DHT22;11813;50.834;4.280;2022-08-01T06:18:51;21.60;99.90
23289;DHT22;11813;50.834;4.280;2022-08-01T06:21:16;21.70;99.90
23289;DHT22;11813;50.834;4.280;2022-08-01T06:23:42;21.90;99.90
23289;DHT22;11813;50.834;4.280;2022-08-01T06:26:08;22.00;99.90
23289;DHT22;11813;50.834;4.280;2022-08-01T06:28:34;22.00;99.90
23289;DHT22;11813;50.834;4.280;2022-08-01T06:30:59;22.10;99.90
23289;DHT22;11813;50.834;4.280;2022-08-01T06:33:26;22.00;99.90
23289;DHT22;11813;50.834;4.280;2022-08-01T06:35:52;22.00;99.90
23289;DHT22;11813;50.834;4.280;2022-08-01T06:38:17;22.20;99.90
23289;DHT22;11813;50.834;4.280;2022-08-01T06:40:43;22.30;99.90
23289;DHT22;11813;50.834;4.280;2022-08-01T06:43:08;22.40;99.90
23289;DHT22;11813;50.834;4.280;2022-08-01T06:45:36;22.40;99.90
23289;DHT22;11813;50.834;4.280;2022-08-01T06:48:02;22.50;99.90
23289;DHT22;11813;50.834;4.280;2022-08-01T06:50:28;22.50;99.90
23289;DHT22;11813;50.834;4.280;2022-08-01T06:52:53;22.50;99.90
23289;DHT22;11813;50.834;4.280;2022-08-01T06:55:19;22.50;99.90
23289;DHT22;11813;50.834;4.280;2022-08-01T06:57:50;22.50;99.90
23289;DHT22;11813;50.834;4.280;2022-08-01T07:00:16;22.50;99.90
23289;DHT22;11813;50.834;4.280;2022-08-01T07:02:46;22.40;99.90
23289;DHT22;11813;50.834;4.280;2022-08-01T07:05:12;22.30;99.90
23289;DHT22;11813;50.834;4.280;2022-08-01T07:07:38;22.40;99.90
23289;DHT22;11813;50.834;4.280;2022-08-01T07:10:04;22.40;99.90
23289;DHT22;11813;50.834;4.280;2022-08-01T07:12:30;22.50;99.90
23289;DHT22;11813;50.834;4.280;2022-08-01T07:14:55;22.60;99.90
23289;DHT22;11813;50.834;4.280;2022-08-01T07:17:21;22.60;99.90
23289;DHT22;11813;50.834;4.280;2022-08-01T07:19:47;22.60;99.90
23289;DHT22;11813;50.834;4.280;2022-08-01T07:22:13;22.60;99.90
23289;DHT22;11813;50.834;4.280;2022-08-01T07:24:42;22.50;99.90
23289;DHT22;11813;50.834;4.280;2022-08-01T07:27:07;22.50;99.90
23289;DHT22;11813;50.834;4.280;2022-08-01T07:29:33;22.30;99.90
23289;DHT22;11813;50.834;4.280;2022-08-01T07:31:59;22.20;99.90
23289;DHT22;11813;50.834;4.280;2022-08-01T07:34:25;22.30;99.90
23289;DHT22;11813;50.834;4.280;2022-08-01T07:36:51;22.50;99.90
23289;DHT22;11813;50.834;4.280;2022-08-01T07:39:17;22.50;99.90
23289;DHT22;11813;50.834;4.280;2022-08-01T07:41:43;22.80;99.90
23289;DHT22;11813;50.834;4.280;2022-08-01T07:44:08;22.90;99.90
23289;DHT22;11813;50.834;4.280;2022-08-01T07:46:34;23.10;99.90
23289;DHT22;11813;50.834;4.280;2022-08-01T07:48:59;23.20;99.90
23289;DHT22;11813;50.834;4.280;2022-08-01T07:51:25;23.40;99.90
23289;DHT22;11813;50.834;4.280;2022-08-01T07:53:51;23.30;99.90
23289;DHT22;11813;50.834;4.280;2022-08-01T07:56:16;23.40;99.90
23289;DHT22;11813;50.834;4.280;2022-08-01T07:58:42;23.40;99.90
23289;DHT22;11813;50.834;4.280;2022-08-01T08:01:08;23.60;99.90
23289;DHT22;11813;50.834;4.280;2022-08-01T08:03:33;23.60;99.90
23289;DHT22;11813;50.834;4.280;2022-08-01T08:05:59;23.70;99.90
23289;DHT22;11813;50.834;4.280;2022-08-01T08:08:25;23.70;99.90
23289;DHT22;11813;50.834;4.280;2022-08-01T08:10:51;23.50;99.90
23289;DHT22;11813;50.834;4.280;2022-08-01T08:13:17;23.60;99.90
23289;DHT22;11813;50.834;4.280;2022-08-01T08:15:42;23.70;99.90
23289;DHT22;11813;50.834;4.280;2022-08-01T08:18:08;23.70;99.90
23289;DHT22;11813;50.834;4.280;2022-08-01T08:20:34;23.90;99.90
23289;DHT22;11813;50.834;4.280;2022-08-01T08:23:00;23.90;99.90
23289;DHT22;11813;50.834;4.280;2022-08-01T08:25:25;24.10;99.90
23289;DHT22;11813;50.834;4.280;2022-08-01T08:27:52;24.20;99.90
23289;DHT22;11813;50.834;4.280;2022-08-01T08:30:18;24.40;99.90
23289;DHT22;11813;50.834;4.280;2022-08-01T08:32:43;24.60;99.90
23289;DHT22;11813;50.834;4.280;2022-08-01T08:35:09;24.70;99.90
23289;DHT22;11813;50.834;4.280;2022-08-01T08:37:36;24.60;99.90
23289;DHT22;11813;50.834;4.280;2022-08-01T08:40:03;24.60;99.90
23289;DHT22;11813;50.834;4.280;2022-08-01T08:42:29;24.60;99.90
23289;DHT22;11813;50.834;4.280;2022-08-01T08:44:55;24.80;99.90
23289;DHT22;11813;50.834;4.280;2022-08-01T08:47:22;24.70;99.90
23289;DHT22;11813;50.834;4.280;2022-08-01T08:49:52;24.40;99.90
23289;DHT22;11813;50.834;4.280;2022-08-01T08:52:19;24.50;99.90
23289;DHT22;11813;50.834;4.280;2022-08-01T08:54:47;24.70;99.90
23289;DHT22;11813;50.834;4.280;2022-08-01T08:57:14;24.90;99.90
23289;DHT22;11813;50.834;4.280;2022-08-01T08:59:42;25.00;99.90
23289;DHT22;11813;50.834;4.280;2022-08-01T09:02:08;24.50;99.90
23289;DHT22;11813;50.834;4.280;2022-08-01T09:04:35;24.70;99.90
23289;DHT22;11813;50.834;4.280;2022-08-01T09:07:04;24.60;99.90
23289;DHT22;11813;50.834;4.280;2022-08-01T09:09:30;24.50;99.90
23289;DHT22;11813;50.834;4.280;2022-08-01T09:11:55;24.70;99.90
23289;DHT22;11813;50.834;4.280;2022-08-01T09:14:22;25.00;99.90
23289;DHT22;11813;50.834;4.280;2022-08-01T09:17:02;25.20;99.90
23289;DHT22;11813;50.834;4.280;2022-08-01T09:19:37;25.40;99.90
23289;DHT22;11813;50.834;4.280;2022-08-01T09:22:05;25.40;99.90
23289;DHT22;11813;50.834;4.280;2022-08-01T09:24:31;25.50;99.90
23289;DHT22;11813;50.834;4.280;2022-08-01T09:26:59;25.40;99.90
23289;DHT22;11813;50.834;4.280;2022-08-01T09:29:27;25.30;99.90
23289;DHT22;11813;50.834;4.280;2022-08-01T09:31:53;25.20;99.90
23289;DHT22;11813;50.834;4.280;2022-08-01T09:34:28;25.20;99.90
23289;DHT22;11813;50.834;4.280;2022-08-01T09:36:56;25.30;99.90
23289;DHT22;11813;50.834;4.280;2022-08-01T09:39:24;25.40;99.90
23289;DHT22;11813;50.834;4.280;2022-08-01T09:41:50;25.70;99.90
23289;DHT22;11813;50.834;4.280;2022-08-01T09:44:17;25.80;99.90
23289;DHT22;11813;50.834;4.280;2022-08-01T09:46:54;26.20;99.90
23289;DHT22;11813;50.834;4.280;2022-08-01T09:49:31;26.50;99.90
23289;DHT22;11813;50.834;4.280;2022-08-01T09:51:59;26.70;99.90
23289;DHT22;11813;50.834;4.280;2022-08-01T09:54:34;26.90;99.90
23289;DHT22;11813;50.834;4.280;2022-08-01T09:57:18;26.80;99.90
23289;DHT22;11813;50.834;4.280;2022-08-01T09:59:46;26.70;99.90
23289;DHT22;11813;50.834;4.280;2022-08-01T10:02:15;26.50;99.90
23289;DHT22;11813;50.834;4.280;2022-08-01T10:04:52;26.30;99.90
23289;DHT22;11813;50.834;4.280;2022-08-01T10:07:19;26.10;99.90
23289;DHT22;11813;50.834;4.280;2022-08-01T10:09:46;26.20;99.90
23289;DHT22;11813;50.834;4.280;2022-08-01T10:12:14;26.20;99.90
23289;DHT22;11813;50.834;4.280;2022-08-01T10:14:40;26.40;99.90
23289;DHT22;11813;50.834;4.280;2022-08-01T10:17:08;26.60;99.90
23289;DHT22;11813;50.834;4.280;2022-08-01T10:19:35;26.70;99.90
23289;DHT22;11813;50.834;4.280;2022-08-01T10:22:04;26.80;99.90
23289;DHT22;11813;50.834;4.280;2022-08-01T10:24:38;26.50;99.90
23289;DHT22;11813;50.834;4.280;2022-08-01T10:27:09;26.20;99.90
23289;DHT22;11813;50.834;4.280;2022-08-01T10:29:41;26.30;99.90
23289;DHT22;11813;50.834;4.280;2022-08-01T10:32:07;26.60;99.90
23289;DHT22;11813;50.834;4.280;2022-08-01T10:34:35;27.10;99.90
23289;DHT22;11813;50.834;4.280;2022-08-01T10:37:01;27.40;99.90
23289;DHT22;11813;50.834;4.280;2022-08-01T10:39:28;27.60;99.90
23289;DHT22;11813;50.834;4.280;2022-08-01T10:41:56;27.60;99.90
23289;DHT22;11813;50.834;4.280;2022-08-01T10:44:23;27.40;99.90
23289;DHT22;11813;50.834;4.280;2022-08-01T10:46:54;27.50;99.90
23289;DHT22;11813;50.834;4.280;2022-08-01T10:49:22;27.70;99.90
23289;DHT22;11813;50.834;4.280;2022-08-01T10:51:49;28.00;99.90
23289;DHT22;11813;50.834;4.280;2022-08-01T10:54:14;28.20;99.90
23289;DHT22;11813;50.834;4.280;2022-08-01T10:56:50;28.30;99.90
23289;DHT22;11813;50.834;4.280;2022-08-01T10:59:25;28.30;99.90
23289;DHT22;11813;50.834;4.280;2022-08-01T11:01:58;28.20;99.90
23289;DHT22;11813;50.834;4.280;2022-08-01T11:04:44;27.80;99.90
23289;DHT22;11813;50.834;4.280;2022-08-01T11:07:17;28.10;99.90
23289;DHT22;11813;50.834;4.280;2022-08-01T11:09:46;28.20;99.90
23289;DHT22;11813;50.834;4.280;2022-08-01T11:12:16;28.20;99.90
23289;DHT22;11813;50.834;4.280;2022-08-01T11:17:34;28.40;99.90
23289;DHT22;11813;50.834;4.280;2022-08-01T11:20:54;28.50;99.90
23289;DHT22;11813;50.834;4.280;2022-08-01T11:30:51;29.10;99.90
23289;DHT22;11813;50.834;4.280;2022-08-01T11:33:19;28.90;99.90
23289;DHT22;11813;50.834;4.280;2022-08-01T11:41:32;29.20;99.90
23289;DHT22;11813;50.834;4.280;2022-08-01T11:54:33;29.60;99.90
23289;DHT22;11813;50.834;4.280;2022-08-01T11:57:05;30.10;99.90
23289;DHT22;11813;50.834;4.280;2022-08-01T11:59:57;30.00;99.90
23289;DHT22;11813;50.834;4.280;2022-08-01T12:02:29;30.40;99.90
23289;DHT22;11813;50.834;4.280;2022-08-01T12:04:57;30.40;99.90
23289;DHT22;11813;50.834;4.280;2022-08-01T12:07:25;29.90;99.90
23289;DHT22;11813;50.834;4.280;2022-08-01T12:10:04;29.80;99.90
23289;DHT22;11813;50.834;4.280;2022-08-01T12:12:31;29.80;99.90
23289;DHT22;11813;50.834;4.280;2022-08-01T12:15:03;30.10;99.90
23289;DHT22;11813;50.834;4.280;2022-08-01T12:17:36;30.10;99.90
23289;DHT22;11813;50.834;4.280;2022-08-01T12:20:04;30.30;99.90
23289;DHT22;11813;50.834;4.280;2022-08-01T12:22:30;30.60;99.90
23289;DHT22;11813;50.834;4.280;2022-08-01T12:24:55;30.50;99.90
23289;DHT22;11813;50.834;4.280;2022-08-01T12:27:30;30.70;99.90
23289;DHT22;11813;50.834;4.280;2022-08-01T12:29:57;31.00;99.90
23289;DHT22;11813;50.834;4.280;2022-08-01T12:34:50;30.30;99.90
23289;DHT22;11813;50.834;4.280;2022-08-01T12:37:16;30.00;99.90
23289;DHT22;11813;50.834;4.280;2022-08-01T12:39:43;30.20;99.90
23289;DHT22;11813;50.834;4.280;2022-08-01T12:42:09;30.70;99.90
23289;DHT22;11813;50.834;4.280;2022-08-01T12:44:37;31.10;99.90
23289;DHT22;11813;50.834;4.280;2022-08-01T12:47:05;31.30;99.90
23289;DHT22;11813;50.834;4.280;2022-08-01T12:49:33;31.10;99.90
23289;DHT22;11813;50.834;4.280;2022-08-01T12:52:01;30.80;99.90
23289;DHT22;11813;50.834;4.280;2022-08-01T12:54:27;29.90;99.90
23289;DHT22;11813;50.834;4.280;2022-08-01T12:56:52;29.50;99.90
23289;DHT22;11813;50.834;4.280;2022-08-01T12:59:27;29.60;99.90
23289;DHT22;11813;50.834;4.280;2022-08-01T13:01:55;30.00;99.90
23289;DHT22;11813;50.834;4.280;2022-08-01T13:04:22;29.90;99.90
23289;DHT22;11813;50.834;4.280;2022-08-01T13:06:54;29.50;99.90
23289;DHT22;11813;50.834;4.280;2022-08-01T13:09:20;29.30;99.90
23289;DHT22;11813;50.834;4.280;2022-08-01T13:11:46;29.70;99.90
23289;DHT22;11813;50.834;4.280;2022-08-01T13:14:28;30.10;99.90
23289;DHT22;11813;50.834;4.280;2022-08-01T13:16:54;30.60;99.90
23289;DHT22;11813;50.834;4.280;2022-08-01T13:19:20;30.90;99.90
23289;DHT22;11813;50.834;4.280;2022-08-01T13:21:56;30.70;99.90
23289;DHT22;11813;50.834;4.280;2022-08-01T13:24:29;30.40;99.90
23289;DHT22;11813;50.834;4.280;2022-08-01T13:27:20;30.20;99.90
23289;DHT22;11813;50.834;4.280;2022-08-01T13:29:49;30.10;99.90
23289;DHT22;11813;50.834;4.280;2022-08-01T13:32:19;29.90;99.90
23289;DHT22;11813;50.834;4.280;2022-08-01T13:34:46;29.70;99.90
23289;DHT22;11813;50.834;4.280;2022-08-01T13:37:11;29.60;99.90
23289;DHT22;11813;50.834;4.280;2022-08-01T13:39:37;29.40;99.90
23289;DHT22;11813;50.834;4.280;2022-08-01T13:42:06;29.50;99.90
23289;DHT22;11813;50.834;4.280;2022-08-01T13:44:32;29.60;99.90
23289;DHT22;11813;50.834;4.280;2022-08-01T13:46:57;30.10;99.90
23289;DHT22;11813;50.834;4.280;2022-08-01T13:49:23;30.40;99.90
23289;DHT22;11813;50.834;4.280;2022-08-01T13:51:49;30.50;99.90
23289;DHT22;11813;50.834;4.280;2022-08-01T13:54:16;31.10;99.90
23289;DHT22;11813;50.834;4.280;2022-08-01T13:56:41;31.50;99.90
23289;DHT22;11813;50.834;4.280;2022-08-01T13:59:08;31.90;99.90
23289;DHT22;11813;50.834;4.280;2022-08-01T14:01:34;32.20;99.90
23289;DHT22;11813;50.834;4.280;2022-08-01T14:04:00;32.40;99.90
23289;DHT22;11813;50.834;4.280;2022-08-01T14:06:26;32.60;99.90
23289;DHT22;11813;50.834;4.280;2022-08-01T14:08:51;32.70;99.90
23289;DHT22;11813;50.834;4.280;2022-08-01T14:11:17;32.60;99.90
23289;DHT22;11813;50.834;4.280;2022-08-01T14:13:43;32.30;99.90
23289;DHT22;11813;50.834;4.280;2022-08-01T14:16:09;31.90;99.90
23289;DHT22;11813;50.834;4.280;2022-08-01T14:18:34;32.00;99.90
23289;DHT22;11813;50.834;4.280;2022-08-01T14:21:00;32.10;99.90
23289;DHT22;11813;50.834;4.280;2022-08-01T14:23:26;31.80;99.90
23289;DHT22;11813;50.834;4.280;2022-08-01T14:25:51;31.50;99.90
23289;DHT22;11813;50.834;4.280;2022-08-01T14:28:17;31.00;99.90
23289;DHT22;11813;50.834;4.280;2022-08-01T14:30:43;30.70;99.90
23289;DHT22;11813;50.834;4.280;2022-08-01T14:33:10;30.60;99.90
23289;DHT22;11813;50.834;4.280;2022-08-01T14:35:36;30.80;99.90
23289;DHT22;11813;50.834;4.280;2022-08-01T14:38:02;31.10;99.90
23289;DHT22;11813;50.834;4.280;2022-08-01T14:40:27;31.60;99.90
23289;DHT22;11813;50.834;4.280;2022-08-01T14:42:53;31.60;99.90
23289;DHT22;11813;50.834;4.280;2022-08-01T14:45:19;31.50;99.90
23289;DHT22;11813;50.834;4.280;2022-08-01T14:47:44;31.50;99.90
23289;DHT22;11813;50.834;4.280;2022-08-01T14:50:14;31.30;99.90
23289;DHT22;11813;50.834;4.280;2022-08-01T14:52:41;31.30;99.90
23289;DHT22;11813;50.834;4.280;2022-08-01T14:55:09;31.50;99.90
23289;DHT22;11813;50.834;4.280;2022-08-01T14:57:36;32.10;99.90
23289;DHT22;11813;50.834;4.280;2022-08-01T15:00:03;32.80;99.90
23289;DHT22;11813;50.834;4.280;2022-08-01T15:02:29;33.50;99.90
23289;DHT22;11813;50.834;4.280;2022-08-01T15:04:55;34.10;99.90
23289;DHT22;11813;50.834;4.280;2022-08-01T15:07:20;34.10;99.50
23289;DHT22;11813;50.834;4.280;2022-08-01T15:09:46;34.40;99.90
23289;DHT22;11813;50.834;4.280;2022-08-01T15:12:12;34.60;99.90
23289;DHT22;11813;50.834;4.280;2022-08-01T15:14:38;34.80;99.90
23289;DHT22;11813;50.834;4.280;2022-08-01T15:17:13;34.80;99.20
23289;DHT22;11813;50.834;4.280;2022-08-01T15:19:39;34.50;99.10
23289;DHT22;11813;50.834;4.280;2022-08-01T15:22:05;34.70;98.70
23289;DHT22;11813;50.834;4.280;2022-08-01T15:24:31;34.90;99.60
23289;DHT22;11813;50.834;4.280;2022-08-01T15:26:56;34.80;97.90
23289;DHT22;11813;50.834;4.280;2022-08-01T15:29:22;34.50;99.70
23289;DHT22;11813;50.834;4.280;2022-08-01T15:31:47;34.70;98.30
23289;DHT22;11813;50.834;4.280;2022-08-01T15:34:14;34.90;98.80
23289;DHT22;11813;50.834;4.280;2022-08-01T15:36:40;35.00;97.40
23289;DHT22;11813;50.834;4.280;2022-08-01T15:39:08;34.90;99.10
23289;DHT22;11813;50.834;4.280;2022-08-01T15:41:34;34.90;97.20
23289;DHT22;11813;50.834;4.280;2022-08-01T15:43:59;34.80;98.30
23289;DHT22;11813;50.834;4.280;2022-08-01T15:46:25;35.10;98.90
23289;DHT22;11813;50.834;4.280;2022-08-01T15:48:51;35.10;96.70
23289;DHT22;11813;50.834;4.280;2022-08-01T15:51:16;35.30;97.50
23289;DHT22;11813;50.834;4.280;2022-08-01T15:53:42;35.20;97.20
23289;DHT22;11813;50.834;4.280;2022-08-01T15:56:08;35.20;96.60
23289;DHT22;11813;50.834;4.280;2022-08-01T15:58:33;35.00;97.10
23289;DHT22;11813;50.834;4.280;2022-08-01T16:00:59;35.00;96.80
23289;DHT22;11813;50.834;4.280;2022-08-01T16:03:25;35.20;98.10
23289;DHT22;11813;50.834;4.280;2022-08-01T16:05:52;35.20;96.60
23289;DHT22;11813;50.834;4.280;2022-08-01T16:08:18;35.60;96.60
23289;DHT22;11813;50.834;4.280;2022-08-01T16:10:43;36.00;96.40